createdAt,value
2018-02-04T00:00:25.980Z,2.94
2018-02-04T00:01:25.986Z,2.87
2018-02-04T00:02:25.903Z,2.87
2018-02-04T00:03:25.988Z,2.94
2018-02-04T00:04:25.905Z,2.87
2018-02-04T00:05:25.799Z,2.87
2018-02-04T00:06:25.833Z,2.87
2018-02-04T00:07:25.879Z,2.87
2018-02-04T00:08:25.940Z,2.81
2018-02-04T00:09:25.868Z,2.87
2018-02-04T00:10:25.959Z,2.81
2018-02-04T00:11:25.701Z,2.87
2018-02-04T00:12:26.473Z,2.81
2018-02-04T00:13:26.007Z,2.81
2018-02-04T00:14:26.077Z,2.81
2018-02-04T00:15:25.908Z,2.81
2018-02-04T00:16:25.824Z,2.81
2018-02-04T00:17:25.903Z,2.75
2018-02-04T00:18:25.953Z,2.75
2018-02-04T00:19:25.804Z,2.75
2018-02-04T00:20:26.042Z,2.75
2018-02-04T00:21:25.940Z,2.75
2018-02-04T00:22:26.043Z,2.75
2018-02-04T00:23:25.989Z,2.75
2018-02-04T00:24:25.982Z,2.75
2018-02-04T00:25:25.990Z,2.69
2018-02-04T00:26:25.935Z,2.75
2018-02-04T00:27:25.876Z,2.69
2018-02-04T00:28:26.035Z,2.75
2018-02-04T00:29:26.233Z,2.69
2018-02-04T00:30:26.202Z,2.75
2018-02-04T00:31:26.105Z,2.75
2018-02-04T00:32:26.068Z,2.69
2018-02-04T00:33:25.990Z,2.75
2018-02-04T00:34:26.049Z,2.69
2018-02-04T00:35:26.124Z,2.69
2018-02-04T00:36:25.983Z,2.69
2018-02-04T00:37:26.034Z,2.62
2018-02-04T00:38:26.028Z,2.62
2018-02-04T00:39:26.058Z,2.62
2018-02-04T00:40:26.064Z,2.62
2018-02-04T00:41:26.073Z,2.62
2018-02-04T00:42:26.028Z,2.56
2018-02-04T00:43:26.103Z,2.56
2018-02-04T00:44:26.081Z,2.56
2018-02-04T00:45:26.179Z,2.56
2018-02-04T00:46:26.107Z,2.56
2018-02-04T00:47:26.103Z,2.56
2018-02-04T00:48:25.953Z,2.5
2018-02-04T00:49:26.127Z,2.5
2018-02-04T00:50:26.030Z,2.5
2018-02-04T00:51:25.968Z,2.5
2018-02-04T00:52:26.010Z,2.44
2018-02-04T00:53:25.977Z,2.5
2018-02-04T00:54:26.098Z,2.5
2018-02-04T00:55:26.149Z,2.5
2018-02-04T00:56:25.957Z,2.5
2018-02-04T00:57:26.005Z,2.5
2018-02-04T00:58:25.935Z,2.5
2018-02-04T00:59:26.125Z,2.5
2018-02-04T01:00:26.218Z,2.5
2018-02-04T01:01:26.254Z,2.5
2018-02-04T01:02:26.229Z,2.56
2018-02-04T01:03:26.124Z,2.56
2018-02-04T01:04:26.184Z,2.5
2018-02-04T01:05:26.240Z,2.56
2018-02-04T01:06:26.350Z,2.56
2018-02-04T01:07:26.046Z,2.62
2018-02-04T01:08:26.082Z,2.56
2018-02-04T01:09:26.091Z,2.62
2018-02-04T01:10:26.198Z,2.56
2018-02-04T01:11:26.236Z,2.62
2018-02-04T01:12:26.266Z,2.62
2018-02-04T01:13:26.193Z,2.62
2018-02-04T01:14:26.174Z,2.56
2018-02-04T01:15:26.273Z,2.56
2018-02-04T01:16:26.809Z,2.56
2018-02-04T01:17:26.181Z,2.56
2018-02-04T01:18:26.227Z,2.56
2018-02-04T01:19:26.238Z,2.5
2018-02-04T01:20:26.192Z,2.56
2018-02-04T01:21:26.521Z,2.5
2018-02-04T01:22:26.203Z,2.5
2018-02-04T01:23:26.252Z,2.5
2018-02-04T01:24:26.159Z,2.5
2018-02-04T01:25:26.210Z,2.5
2018-02-04T01:26:26.076Z,2.5
2018-02-04T01:27:26.079Z,2.5
2018-02-04T01:28:26.153Z,2.5
2018-02-04T01:29:25.995Z,2.5
2018-02-04T01:30:26.220Z,2.44
2018-02-04T01:31:26.335Z,2.5
2018-02-04T01:32:26.237Z,2.44
2018-02-04T01:33:26.348Z,2.5
2018-02-04T01:34:26.305Z,2.5
2018-02-04T01:35:26.150Z,2.5
2018-02-04T01:36:26.384Z,2.5
2018-02-04T01:37:26.359Z,2.5
2018-02-04T01:38:26.321Z,2.44
2018-02-04T01:39:26.398Z,2.5
2018-02-04T01:40:26.233Z,2.44
2018-02-04T01:41:26.166Z,2.44
2018-02-04T01:42:26.124Z,2.44
2018-02-04T01:43:26.336Z,2.5
2018-02-04T01:44:26.312Z,2.5
2018-02-04T01:45:26.428Z,2.44
2018-02-04T01:46:26.390Z,2.44
2018-02-04T01:47:26.215Z,2.44
2018-02-04T01:48:26.299Z,2.5
2018-02-04T01:49:26.212Z,2.44
2018-02-04T01:50:26.191Z,2.5
2018-02-04T01:51:26.412Z,2.44
2018-02-04T01:52:26.361Z,2.44
2018-02-04T01:53:26.238Z,2.44
2018-02-04T01:54:26.191Z,2.44
2018-02-04T01:55:26.348Z,2.44
2018-02-04T01:56:26.353Z,2.44
2018-02-04T01:57:26.287Z,2.37
2018-02-04T01:58:26.268Z,2.37
2018-02-04T01:59:26.229Z,2.37
2018-02-04T02:00:26.352Z,2.37
2018-02-04T02:01:26.485Z,2.37
2018-02-04T02:02:26.323Z,2.31
2018-02-04T02:03:26.373Z,2.37
2018-02-04T02:04:26.311Z,2.37
2018-02-04T02:05:26.428Z,2.37
2018-02-04T02:06:26.546Z,2.37
2018-02-04T02:07:26.267Z,2.37
2018-02-04T02:08:26.396Z,2.31
2018-02-04T02:09:26.391Z,2.31
2018-02-04T02:10:26.346Z,2.31
2018-02-04T02:11:26.519Z,2.31
2018-02-04T02:12:26.386Z,2.31
2018-02-04T02:13:26.430Z,2.31
2018-02-04T02:14:26.515Z,2.31
2018-02-04T02:15:26.353Z,2.31
2018-02-04T02:16:26.376Z,2.31
2018-02-04T02:17:26.406Z,2.31
2018-02-04T02:18:26.445Z,2.31
2018-02-04T02:19:26.461Z,2.31
2018-02-04T02:20:26.325Z,2.31
2018-02-04T02:21:26.207Z,2.31
2018-02-04T02:22:26.224Z,2.31
2018-02-04T02:23:26.363Z,2.31
2018-02-04T02:24:26.360Z,2.31
2018-02-04T02:25:26.323Z,2.31
2018-02-04T02:26:26.315Z,2.37
2018-02-04T02:27:26.450Z,2.31
2018-02-04T02:28:26.447Z,2.37
2018-02-04T02:29:26.408Z,2.37
2018-02-04T02:30:26.456Z,2.37
2018-02-04T02:31:26.675Z,2.37
2018-02-04T02:32:26.440Z,2.37
2018-02-04T02:33:26.504Z,2.37
2018-02-04T02:34:26.575Z,2.37
2018-02-04T02:35:26.433Z,2.37
2018-02-04T02:36:26.469Z,2.37
2018-02-04T02:37:26.631Z,2.37
2018-02-04T02:38:26.510Z,2.37
2018-02-04T02:39:26.427Z,2.37
2018-02-04T02:40:26.490Z,2.44
2018-02-04T02:41:26.606Z,2.44
2018-02-04T02:42:26.537Z,2.44
2018-02-04T02:43:26.491Z,2.44
2018-02-04T02:44:26.554Z,2.44
2018-02-04T02:45:26.487Z,2.44
2018-02-04T02:46:26.434Z,2.44
2018-02-04T02:47:26.583Z,2.44
2018-02-04T02:48:26.376Z,2.44
2018-02-04T02:49:26.351Z,2.44
2018-02-04T02:50:26.559Z,2.44
2018-02-04T02:51:26.397Z,2.37
2018-02-04T02:52:26.731Z,2.44
2018-02-04T02:53:26.344Z,2.44
2018-02-04T02:54:26.494Z,2.44
2018-02-04T02:55:26.492Z,2.44
2018-02-04T02:56:26.466Z,2.44
2018-02-04T02:57:26.577Z,2.44
2018-02-04T02:58:26.388Z,2.44
2018-02-04T02:59:26.521Z,2.44
2018-02-04T03:00:26.791Z,2.44
2018-02-04T03:01:25.817Z,2.5
2018-02-04T03:02:25.833Z,2.44
2018-02-04T03:03:25.802Z,2.44
2018-02-04T03:04:25.795Z,2.44
2018-02-04T03:05:25.780Z,2.44
2018-02-04T03:06:25.704Z,2.44
2018-02-04T03:07:25.791Z,2.44
2018-02-04T03:08:25.774Z,2.37
2018-02-04T03:09:25.653Z,2.44
2018-02-04T03:10:25.651Z,2.44
2018-02-04T03:11:25.717Z,2.44
2018-02-04T03:12:26.096Z,2.44
2018-02-04T03:13:26.411Z,2.5
2018-02-04T03:14:25.859Z,2.5
2018-02-04T03:15:25.836Z,2.5
2018-02-04T03:16:25.900Z,2.5
2018-02-04T03:17:25.849Z,2.5
2018-02-04T03:18:25.857Z,2.5
2018-02-04T03:19:25.812Z,2.5
2018-02-04T03:20:25.594Z,2.5
2018-02-04T03:21:25.796Z,2.5
2018-02-04T03:22:25.798Z,2.5
2018-02-04T03:23:25.918Z,2.5
2018-02-04T03:24:25.949Z,2.44
2018-02-04T03:25:25.755Z,2.44
2018-02-04T03:26:25.766Z,2.5
2018-02-04T03:27:25.765Z,2.44
2018-02-04T03:28:25.742Z,2.5
2018-02-04T03:29:26.038Z,2.44
2018-02-04T03:30:25.848Z,2.44
2018-02-04T03:31:25.873Z,2.5
2018-02-04T03:32:25.955Z,2.44
2018-02-04T03:33:25.923Z,2.44
2018-02-04T03:34:25.951Z,2.44
2018-02-04T03:35:26.972Z,2.44
2018-02-04T03:36:25.964Z,2.44
2018-02-04T03:37:25.865Z,2.44
2018-02-04T03:38:26.009Z,2.44
2018-02-04T03:39:25.780Z,2.5
2018-02-04T03:40:25.906Z,2.44
2018-02-04T03:41:25.942Z,2.44
2018-02-04T03:42:25.893Z,2.37
2018-02-04T03:43:25.722Z,2.44
2018-02-04T03:44:26.021Z,2.44
2018-02-04T03:45:25.893Z,2.44
2018-02-04T03:46:25.912Z,2.44
2018-02-04T03:47:25.893Z,2.44
2018-02-04T03:48:25.886Z,2.44
2018-02-04T03:49:25.816Z,2.44
2018-02-04T03:50:25.771Z,2.44
2018-02-04T03:51:25.938Z,2.44
2018-02-04T03:52:25.845Z,2.44
2018-02-04T03:53:25.860Z,2.44
2018-02-04T03:54:25.851Z,2.44
2018-02-04T03:55:26.001Z,2.37
2018-02-04T03:56:25.995Z,2.44
2018-02-04T03:57:25.704Z,2.44
2018-02-04T03:58:25.955Z,2.44
2018-02-04T03:59:25.814Z,2.5
2018-02-04T04:00:25.945Z,2.37
2018-02-04T04:01:25.806Z,2.44
2018-02-04T04:02:25.753Z,2.44
2018-02-04T04:03:25.989Z,2.5
2018-02-04T04:04:25.927Z,2.44
2018-02-04T04:05:25.953Z,2.5
2018-02-04T04:06:25.820Z,2.5
2018-02-04T04:07:25.890Z,2.5
2018-02-04T04:08:25.900Z,2.5
2018-02-04T04:09:25.916Z,2.5
2018-02-04T04:10:25.925Z,2.5
2018-02-04T04:11:26.032Z,2.5
2018-02-04T04:12:25.882Z,2.5
2018-02-04T04:13:25.891Z,2.5
2018-02-04T04:14:25.971Z,2.5
2018-02-04T04:15:25.913Z,2.5
2018-02-04T04:16:25.818Z,2.5
2018-02-04T04:17:25.982Z,2.5
2018-02-04T04:18:26.052Z,2.44
2018-02-04T04:19:25.700Z,2.44
2018-02-04T04:20:25.893Z,2.5
2018-02-04T04:21:25.853Z,2.44
2018-02-04T04:22:25.906Z,2.5
2018-02-04T04:23:25.818Z,2.44
2018-02-04T04:24:25.765Z,2.5
2018-02-04T04:25:25.912Z,2.5
2018-02-04T04:26:25.775Z,2.5
2018-02-04T04:27:25.594Z,2.5
2018-02-04T04:28:25.884Z,2.5
2018-02-04T04:29:25.964Z,2.5
2018-02-04T04:30:25.940Z,2.5
2018-02-04T04:31:25.885Z,2.5
2018-02-04T04:32:25.877Z,2.44
2018-02-04T04:33:25.903Z,2.5
2018-02-04T04:34:25.932Z,2.5
2018-02-04T04:35:26.107Z,2.5
2018-02-04T04:38:26.013Z,2.5
2018-02-04T04:39:25.933Z,2.5
2018-02-04T04:40:25.913Z,2.5
2018-02-04T04:41:25.942Z,2.5
2018-02-04T04:42:25.975Z,2.5
2018-02-04T04:43:26.094Z,2.5
2018-02-04T04:44:25.850Z,2.5
2018-02-04T04:45:26.071Z,2.5
2018-02-04T04:46:26.044Z,2.5
2018-02-04T04:47:26.075Z,2.5
2018-02-04T04:48:25.984Z,2.5
2018-02-04T04:49:25.949Z,2.5
2018-02-04T04:50:25.945Z,2.5
2018-02-04T04:51:25.992Z,2.5
2018-02-04T04:52:26.013Z,2.5
2018-02-04T04:53:25.855Z,2.44
2018-02-04T04:54:26.040Z,2.5
2018-02-04T04:55:26.018Z,2.44
2018-02-04T04:56:25.830Z,2.5
2018-02-04T04:57:25.903Z,2.44
2018-02-04T04:58:25.967Z,2.5
2018-02-04T04:59:26.034Z,2.5
2018-02-04T05:00:26.036Z,2.44
2018-02-04T05:01:25.910Z,2.5
2018-02-04T05:02:25.946Z,2.44
2018-02-04T05:03:26.037Z,2.5
2018-02-04T05:04:26.008Z,2.37
2018-02-04T05:05:26.044Z,2.37
2018-02-04T05:06:25.942Z,2.37
2018-02-04T05:07:25.972Z,2.37
2018-02-04T05:08:26.221Z,2.37
2018-02-04T05:09:26.154Z,2.37
2018-02-04T05:10:26.274Z,2.31
2018-02-04T05:11:26.065Z,2.37
2018-02-04T05:12:26.149Z,2.31
2018-02-04T05:14:26.239Z,2.31
2018-02-04T05:15:26.073Z,2.31
2018-02-04T05:16:26.107Z,2.37
2018-02-04T05:17:26.106Z,2.31
2018-02-04T05:18:25.905Z,2.31
2018-02-04T05:19:26.083Z,2.31
2018-02-04T05:20:26.115Z,2.37
2018-02-04T05:21:26.081Z,2.37
2018-02-04T05:22:26.056Z,2.37
2018-02-04T05:23:26.184Z,2.31
2018-02-04T05:24:26.127Z,2.37
2018-02-04T05:25:26.200Z,2.37
2018-02-04T05:26:26.176Z,2.37
2018-02-04T05:27:26.103Z,2.37
2018-02-04T05:28:25.966Z,2.37
2018-02-04T05:29:26.083Z,2.44
2018-02-04T05:30:25.919Z,2.44
2018-02-04T05:31:26.123Z,2.44
2018-02-04T05:32:26.087Z,2.44
2018-02-04T05:33:26.147Z,2.44
2018-02-04T05:34:26.321Z,2.37
2018-02-04T05:35:26.164Z,2.44
2018-02-04T05:36:26.244Z,2.44
2018-02-04T05:37:26.256Z,2.44
2018-02-04T05:38:26.172Z,2.44
2018-02-04T05:39:26.293Z,2.44
2018-02-04T05:40:26.269Z,2.5
2018-02-04T05:41:26.157Z,2.44
2018-02-04T05:42:26.190Z,2.44
2018-02-04T05:43:26.136Z,2.44
2018-02-04T05:44:26.295Z,2.44
2018-02-04T05:45:26.422Z,2.5
2018-02-04T05:46:26.278Z,2.5
2018-02-04T05:47:26.187Z,2.5
2018-02-04T05:48:26.181Z,2.5
2018-02-04T05:49:26.200Z,2.44
2018-02-04T05:50:26.298Z,2.5
2018-02-04T05:51:26.101Z,2.5
2018-02-04T05:52:26.256Z,2.5
2018-02-04T05:53:26.245Z,2.5
2018-02-04T05:54:26.399Z,2.56
2018-02-04T05:55:26.293Z,2.5
2018-02-04T05:56:26.218Z,2.5
2018-02-04T05:57:26.410Z,2.5
2018-02-04T05:58:26.202Z,2.5
2018-02-04T05:59:26.258Z,2.5
2018-02-04T06:00:26.581Z,2.5
2018-02-04T06:01:26.123Z,2.5
2018-02-04T06:02:26.302Z,2.5
2018-02-04T06:03:26.260Z,2.5
2018-02-04T06:04:26.332Z,2.5
2018-02-04T06:05:26.322Z,2.5
2018-02-04T06:06:26.532Z,2.44
2018-02-04T06:07:26.361Z,2.5
2018-02-04T06:08:26.395Z,2.44
2018-02-04T06:09:26.326Z,2.5
2018-02-04T06:10:26.344Z,2.5
2018-02-04T06:11:26.249Z,2.5
2018-02-04T06:12:26.331Z,2.5
2018-02-04T06:13:26.165Z,2.5
2018-02-04T06:14:26.134Z,2.5
2018-02-04T06:15:26.162Z,2.5
2018-02-04T06:16:26.207Z,2.5
2018-02-04T06:17:26.196Z,2.5
2018-02-04T06:18:26.389Z,2.5
2018-02-04T06:19:26.331Z,2.5
2018-02-04T06:20:26.328Z,2.5
2018-02-04T06:21:26.170Z,2.5
2018-02-04T06:22:26.211Z,2.5
2018-02-04T06:23:26.323Z,2.5
2018-02-04T06:24:26.337Z,2.5
2018-02-04T06:25:26.582Z,2.44
2018-02-04T06:26:26.422Z,2.5
2018-02-04T06:27:26.339Z,2.5
2018-02-04T06:28:26.232Z,2.5
2018-02-04T06:29:26.245Z,2.5
2018-02-04T06:30:26.217Z,2.5
2018-02-04T06:31:26.297Z,2.5
2018-02-04T06:32:26.250Z,2.5
2018-02-04T06:33:26.343Z,2.5
2018-02-04T06:34:26.238Z,2.5
2018-02-04T06:35:26.544Z,2.5
2018-02-04T06:36:26.194Z,2.5
2018-02-04T06:37:26.464Z,2.56
2018-02-04T06:38:26.542Z,2.5
2018-02-04T06:39:26.431Z,2.5
2018-02-04T06:40:26.437Z,2.5
2018-02-04T06:41:26.560Z,2.5
2018-02-04T06:42:26.533Z,2.5
2018-02-04T06:43:26.572Z,2.5
2018-02-04T06:44:26.366Z,2.5
2018-02-04T06:45:26.577Z,2.5
2018-02-04T06:46:26.481Z,2.5
2018-02-04T06:47:26.433Z,2.5
2018-02-04T06:48:26.411Z,2.5
2018-02-04T06:49:26.693Z,2.5
2018-02-04T06:50:26.466Z,2.5
2018-02-04T06:51:26.514Z,2.5
2018-02-04T06:52:26.405Z,2.5
2018-02-04T06:53:26.400Z,2.5
2018-02-04T06:54:26.228Z,2.44
2018-02-04T06:55:26.348Z,2.44
2018-02-04T06:56:26.473Z,2.5
2018-02-04T06:57:26.556Z,2.44
2018-02-04T06:58:26.461Z,2.44
2018-02-04T06:59:26.803Z,2.5
2018-02-04T07:00:26.321Z,2.44
2018-02-04T07:01:26.564Z,2.5
2018-02-04T07:02:26.312Z,2.5
2018-02-04T07:03:26.393Z,2.5
2018-02-04T07:04:26.492Z,2.5
2018-02-04T07:05:26.509Z,2.5
2018-02-04T07:06:26.515Z,2.5
2018-02-04T07:07:26.398Z,2.56
2018-02-04T07:08:26.563Z,2.5
2018-02-04T07:09:26.539Z,2.56
2018-02-04T07:10:26.545Z,2.5
2018-02-04T07:11:26.562Z,2.56
2018-02-04T07:12:26.716Z,2.56
2018-02-04T07:13:26.370Z,2.56
2018-02-04T07:14:26.595Z,2.56
2018-02-04T07:15:26.687Z,2.56
2018-02-04T07:16:26.633Z,2.62
2018-02-04T07:17:26.549Z,2.62
2018-02-04T07:18:26.418Z,2.62
2018-02-04T07:19:26.564Z,2.56
2018-02-04T07:20:26.591Z,2.62
2018-02-04T07:21:26.264Z,2.62
2018-02-04T07:22:26.434Z,2.62
2018-02-04T07:23:26.479Z,2.62
2018-02-04T07:24:26.529Z,2.69
2018-02-04T07:25:26.638Z,2.69
2018-02-04T07:26:26.613Z,2.62
2018-02-04T07:27:26.407Z,2.62
2018-02-04T07:28:26.613Z,2.62
2018-02-04T07:29:26.358Z,2.62
2018-02-04T07:30:26.583Z,2.62
2018-02-04T07:31:26.328Z,2.62
2018-02-04T07:32:26.638Z,2.56
2018-02-04T07:33:26.625Z,2.56
2018-02-04T07:34:26.358Z,2.56
2018-02-04T07:35:26.602Z,2.56
2018-02-04T07:36:25.483Z,2.56
2018-02-04T07:37:25.653Z,2.56
2018-02-04T07:38:25.645Z,2.56
2018-02-04T07:39:25.605Z,2.62
2018-02-04T07:40:25.808Z,2.62
2018-02-04T07:41:25.650Z,2.62
2018-02-04T07:42:25.588Z,2.62
2018-02-04T07:43:25.632Z,2.56
2018-02-04T07:44:25.589Z,2.62
2018-02-04T07:45:25.762Z,2.62
2018-02-04T07:46:25.564Z,2.62
2018-02-04T07:47:25.573Z,2.56
2018-02-04T07:48:25.899Z,2.62
2018-02-04T07:49:25.638Z,2.56
2018-02-04T07:50:25.492Z,2.56
2018-02-04T07:51:25.598Z,2.56
2018-02-04T07:52:25.414Z,2.62
2018-02-04T07:53:25.830Z,2.56
2018-02-04T07:54:25.574Z,2.56
2018-02-04T07:55:25.641Z,2.56
2018-02-04T07:56:25.585Z,2.56
2018-02-04T07:57:25.653Z,2.56
2018-02-04T07:58:25.618Z,2.56
2018-02-04T07:59:25.610Z,2.56
2018-02-04T08:00:25.428Z,2.56
2018-02-04T08:01:25.636Z,2.56
2018-02-04T08:02:25.778Z,2.56
2018-02-04T08:03:25.672Z,2.56
2018-02-04T08:04:25.485Z,2.56
2018-02-04T08:05:25.695Z,2.62
2018-02-04T08:06:25.641Z,2.56
2018-02-04T08:07:25.477Z,2.56
2018-02-04T08:08:25.758Z,2.56
2018-02-04T08:09:25.665Z,2.56
2018-02-04T08:10:25.657Z,2.5
2018-02-04T08:11:25.512Z,2.56
2018-02-04T08:12:25.754Z,2.56
2018-02-04T08:13:25.838Z,2.56
2018-02-04T08:14:25.885Z,2.5
2018-02-04T08:15:25.617Z,2.5
2018-02-04T08:16:25.654Z,2.5
2018-02-04T08:17:25.796Z,2.44
2018-02-04T08:18:25.784Z,2.44
2018-02-04T08:19:25.872Z,2.5
2018-02-04T08:20:25.643Z,2.5
2018-02-04T08:21:25.762Z,2.44
2018-02-04T08:22:25.476Z,2.44
2018-02-04T08:23:25.719Z,2.44
2018-02-04T08:24:25.759Z,2.37
2018-02-04T08:25:25.732Z,2.44
2018-02-04T08:26:25.723Z,2.37
2018-02-04T08:27:25.698Z,2.44
2018-02-04T08:28:25.743Z,2.44
2018-02-04T08:29:25.452Z,2.44
2018-02-04T08:30:25.613Z,2.44
2018-02-04T08:31:25.720Z,2.44
2018-02-04T08:32:25.851Z,2.44
2018-02-04T08:33:25.720Z,2.5
2018-02-04T08:34:25.717Z,2.44
2018-02-04T08:35:25.564Z,2.44
2018-02-04T08:36:25.639Z,2.5
2018-02-04T08:37:25.671Z,2.44
2018-02-04T08:38:25.688Z,2.5
2018-02-04T08:39:25.710Z,2.44
2018-02-04T08:40:25.719Z,2.44
2018-02-04T08:41:25.698Z,2.31
2018-02-04T08:42:25.522Z,2.37
2018-02-04T08:43:25.700Z,2.31
2018-02-04T08:44:25.655Z,2.31
2018-02-04T08:45:25.964Z,2.25
2018-02-04T08:46:25.602Z,2.31
2018-02-04T08:47:25.805Z,2.25
2018-02-04T08:48:25.589Z,2.19
2018-02-04T08:49:25.728Z,2.19
2018-02-04T08:50:25.668Z,2.19
2018-02-04T08:51:25.584Z,2.19
2018-02-04T08:52:25.649Z,2.12
2018-02-04T08:53:25.758Z,2.19
2018-02-04T08:54:25.544Z,2.06
2018-02-04T08:55:25.794Z,2.06
2018-02-04T08:56:25.597Z,2.06
2018-02-04T08:57:25.646Z,2
2018-02-04T08:58:25.823Z,2
2018-02-04T08:59:25.574Z,2
2018-02-04T09:00:25.656Z,2
2018-02-04T09:01:25.657Z,2
2018-02-04T09:02:25.956Z,2
2018-02-04T09:03:25.639Z,2
2018-02-04T09:04:25.690Z,1.94
2018-02-04T09:05:25.708Z,2
2018-02-04T09:06:25.526Z,2
2018-02-04T09:07:26.887Z,1.94
2018-02-04T09:08:25.782Z,1.94
2018-02-04T09:09:25.797Z,1.94
2018-02-04T09:10:25.706Z,1.94
2018-02-04T09:11:25.996Z,1.94
2018-02-04T09:12:25.929Z,2
2018-02-04T09:13:25.604Z,1.94
2018-02-04T09:14:25.718Z,1.94
2018-02-04T09:15:25.778Z,1.94
2018-02-04T09:16:25.768Z,1.94
2018-02-04T09:17:25.796Z,1.94
2018-02-04T09:18:25.798Z,2
2018-02-04T09:19:25.742Z,2
2018-02-04T09:20:26.019Z,2
2018-02-04T09:21:25.869Z,2
2018-02-04T09:22:25.972Z,1.94
2018-02-04T09:23:27.595Z,1.94
2018-02-04T09:24:25.878Z,1.81
2018-02-04T09:25:25.944Z,1.75
2018-02-04T09:26:25.790Z,1.75
2018-02-04T09:27:25.972Z,1.75
2018-02-04T09:28:25.726Z,1.75
2018-02-04T09:29:25.814Z,1.75
2018-02-04T09:30:25.876Z,1.75
2018-02-04T09:31:25.823Z,1.81
2018-02-04T09:32:26.864Z,1.81
2018-02-04T09:33:26.181Z,1.75
2018-02-04T09:34:25.984Z,1.81
2018-02-04T09:35:25.958Z,1.81
2018-02-04T09:36:26.017Z,1.81
2018-02-04T09:37:25.841Z,1.87
2018-02-04T09:38:25.919Z,1.87
2018-02-04T09:39:25.926Z,1.81
2018-02-04T09:40:25.924Z,1.81
2018-02-04T09:41:25.733Z,1.81
2018-02-04T09:42:25.857Z,1.75
2018-02-04T09:43:25.910Z,1.75
2018-02-04T09:44:25.923Z,1.81
2018-02-04T09:45:25.839Z,1.81
2018-02-04T09:46:25.938Z,1.81
2018-02-04T09:47:25.790Z,1.81
2018-02-04T09:48:25.864Z,1.87
2018-02-04T09:49:26.014Z,1.81
2018-02-04T09:50:25.913Z,1.87
2018-02-04T09:51:25.805Z,1.87
2018-02-04T09:52:25.867Z,1.87
2018-02-04T09:53:25.867Z,1.87
2018-02-04T09:54:25.932Z,1.87
2018-02-04T09:55:26.260Z,1.87
2018-02-04T09:56:25.964Z,1.81
2018-02-04T09:57:26.178Z,1.87
2018-02-04T09:58:26.056Z,1.81
2018-02-04T09:59:26.045Z,1.81
2018-02-04T10:00:25.756Z,1.81
2018-02-04T10:01:25.788Z,1.81
2018-02-04T10:02:25.867Z,1.81
2018-02-04T10:03:25.914Z,1.81
2018-02-04T10:04:25.855Z,1.75
2018-02-04T10:05:26.337Z,1.81
2018-02-04T10:06:26.418Z,1.75
2018-02-04T10:07:26.520Z,1.81
2018-02-04T10:08:25.970Z,1.81
2018-02-04T10:09:25.822Z,1.81
2018-02-04T10:10:25.679Z,1.81
2018-02-04T10:11:25.892Z,1.81
2018-02-04T10:12:30.402Z,1.81
2018-02-04T10:13:25.694Z,1.75
2018-02-04T10:14:25.985Z,1.81
2018-02-04T10:15:25.742Z,1.81
2018-02-04T10:16:25.682Z,1.81
2018-02-04T10:17:25.792Z,1.75
2018-02-04T10:18:25.914Z,1.75
2018-02-04T10:19:25.781Z,1.75
2018-02-04T10:20:25.888Z,1.69
2018-02-04T10:21:25.962Z,1.75
2018-02-04T10:22:25.838Z,1.69
2018-02-04T10:23:25.960Z,1.69
2018-02-04T10:24:34.471Z,1.69
2018-02-04T10:25:25.944Z,1.69
2018-02-04T10:26:26.597Z,1.62
2018-02-04T10:27:25.708Z,1.5
2018-02-04T10:28:25.942Z,1.44
2018-02-04T10:29:25.903Z,1.31
2018-02-04T10:30:25.840Z,1.25
2018-02-04T10:31:25.905Z,1.19
2018-02-04T10:32:25.868Z,1.25
2018-02-04T10:33:30.125Z,1.25
2018-02-04T10:34:25.895Z,1.19
2018-02-04T10:35:25.918Z,1.12
2018-02-04T10:36:25.946Z,1.06
2018-02-04T10:37:25.815Z,1.12
2018-02-04T10:38:26.039Z,1.06
2018-02-04T10:39:26.029Z,1.06
2018-02-04T10:40:26.023Z,1.06
2018-02-04T10:41:25.932Z,1.06
2018-02-04T10:42:25.955Z,1.06
2018-02-04T10:43:25.998Z,1
2018-02-04T10:44:26.013Z,1
2018-02-04T10:45:26.059Z,1.06
2018-02-04T10:46:26.015Z,1.06
2018-02-04T10:47:25.984Z,1.06
2018-02-04T10:48:26.071Z,1.06
2018-02-04T10:49:26.080Z,1
2018-02-04T10:50:26.097Z,1.06
2018-02-04T10:51:26.131Z,1.06
2018-02-04T10:52:26.082Z,1.06
2018-02-04T10:53:25.975Z,1.12
2018-02-04T10:54:26.061Z,1.12
2018-02-04T10:55:26.036Z,1.12
2018-02-04T10:56:26.049Z,1.12
2018-02-04T10:57:26.034Z,1.12
2018-02-04T10:58:26.020Z,1.12
2018-02-04T10:59:25.960Z,1.19
2018-02-04T11:00:25.958Z,1.12
2018-02-04T11:01:25.858Z,1.19
2018-02-04T11:02:25.910Z,1.25
2018-02-04T11:03:25.950Z,1.25
2018-02-04T11:04:25.946Z,1.31
2018-02-04T11:05:25.954Z,1.31
2018-02-04T11:06:25.985Z,1.31
2018-02-04T11:07:25.887Z,1.37
2018-02-04T11:08:25.897Z,1.31
2018-02-04T11:09:26.009Z,1.37
2018-02-04T11:10:25.974Z,1.37
2018-02-04T11:11:25.997Z,1.37
2018-02-04T11:12:25.880Z,1.37
2018-02-04T11:13:25.897Z,1.37
2018-02-04T11:14:25.981Z,1.37
2018-02-04T11:15:26.022Z,1.37
2018-02-04T11:16:26.586Z,1.37
2018-02-04T11:17:26.163Z,1.44
2018-02-04T11:18:25.942Z,1.44
2018-02-04T11:19:26.054Z,1.44
2018-02-04T11:20:25.995Z,1.44
2018-02-04T11:21:26.025Z,1.5
2018-02-04T11:22:26.092Z,1.5
2018-02-04T11:23:26.125Z,1.5
2018-02-04T11:24:26.258Z,1.5
2018-02-04T11:25:26.123Z,1.5
2018-02-04T11:26:25.963Z,1.56
2018-02-04T11:27:25.951Z,1.5
2018-02-04T11:28:25.909Z,1.5
2018-02-04T11:29:25.938Z,1.44
2018-02-04T11:30:25.925Z,1.5
2018-02-04T11:31:26.192Z,1.5
2018-02-04T11:32:26.091Z,1.56
2018-02-04T11:33:26.146Z,1.56
2018-02-04T11:34:25.885Z,1.62
2018-02-04T11:35:26.017Z,1.62
2018-02-04T11:36:25.975Z,1.56
2018-02-04T11:37:25.959Z,1.62
2018-02-04T11:38:25.944Z,1.62
2018-02-04T11:39:26.071Z,1.62
2018-02-04T11:40:26.044Z,1.62
2018-02-04T11:41:25.848Z,1.62
2018-02-04T11:42:26.176Z,1.69
2018-02-04T11:43:25.756Z,1.69
2018-02-04T11:44:25.631Z,1.69
2018-02-04T11:45:25.821Z,1.69
2018-02-04T11:46:25.733Z,1.69
2018-02-04T11:47:25.880Z,1.69
2018-02-04T11:48:25.668Z,1.69
2018-02-04T11:49:25.860Z,1.69
2018-02-04T11:50:25.741Z,1.75
2018-02-04T11:51:25.710Z,1.75
2018-02-04T11:52:25.764Z,1.75
2018-02-04T11:53:25.732Z,1.81
2018-02-04T11:54:25.756Z,1.81
2018-02-04T11:55:25.708Z,1.81
2018-02-04T11:56:25.761Z,1.81
2018-02-04T11:57:25.620Z,1.81
2018-02-04T11:58:25.723Z,1.87
2018-02-04T11:59:25.675Z,1.87
2018-02-04T12:00:25.667Z,1.87
2018-02-04T12:01:25.636Z,1.87
2018-02-04T12:02:25.804Z,1.87
2018-02-04T12:03:25.617Z,1.81
2018-02-04T12:04:25.840Z,1.81
2018-02-04T12:05:26.131Z,1.75
2018-02-04T12:06:25.786Z,1.81
2018-02-04T12:07:25.892Z,1.81
2018-02-04T12:08:25.722Z,1.81
2018-02-04T12:09:25.849Z,1.81
2018-02-04T12:10:26.116Z,1.81
2018-02-04T12:11:25.832Z,1.75
2018-02-04T12:12:26.599Z,1.75
2018-02-04T12:13:26.565Z,1.75
2018-02-04T12:14:26.467Z,1.75
2018-02-04T12:15:26.402Z,1.75
2018-02-04T12:16:26.567Z,1.75
2018-02-04T12:17:26.624Z,1.69
2018-02-04T12:18:26.712Z,1.69
2018-02-04T12:19:29.615Z,1.69
2018-02-04T12:20:27.372Z,1.69
2018-02-04T12:21:29.442Z,1.69
2018-02-04T12:22:26.540Z,1.69
2018-02-04T12:23:26.516Z,1.69
2018-02-04T12:24:26.575Z,1.69
2018-02-04T12:25:26.509Z,1.62
2018-02-04T12:26:26.598Z,1.69
2018-02-04T12:27:26.511Z,1.69
2018-02-04T12:28:26.569Z,1.69
2018-02-04T12:29:26.683Z,1.69
2018-02-04T12:30:26.587Z,1.69
2018-02-04T12:31:26.890Z,1.69
2018-02-04T12:32:27.457Z,1.69
2018-02-04T12:33:27.283Z,1.69
2018-02-04T12:34:26.969Z,1.69
2018-02-04T12:35:27.342Z,1.62
2018-02-04T12:36:27.044Z,1.69
2018-02-04T12:37:27.533Z,1.62
2018-02-04T12:38:37.624Z,1.56
2018-02-04T12:39:26.958Z,1.56
2018-02-04T12:40:26.973Z,1.56
2018-02-04T12:41:27.304Z,1.56
2018-02-04T12:42:27.314Z,1.56
2018-02-04T12:43:26.850Z,1.5
2018-02-04T12:44:26.374Z,1.5
2018-02-04T12:45:26.838Z,1.5
2018-02-04T12:46:26.494Z,1.5
2018-02-04T12:47:26.377Z,1.5
2018-02-04T12:48:26.655Z,1.5
2018-02-04T12:49:26.513Z,1.5
2018-02-04T12:50:26.709Z,1.5
2018-02-04T12:51:26.612Z,1.5
2018-02-04T12:52:26.528Z,1.5
2018-02-04T12:53:26.447Z,1.5
2018-02-04T12:54:26.826Z,1.44
2018-02-04T12:55:26.941Z,1.44
2018-02-04T12:56:26.514Z,1.44
2018-02-04T12:57:27.112Z,1.44
2018-02-04T12:58:26.417Z,1.44
2018-02-04T12:59:26.758Z,1.44
2018-02-04T13:00:26.814Z,1.44
2018-02-04T13:01:26.623Z,1.44
2018-02-04T13:02:26.733Z,1.5
2018-02-04T13:03:26.931Z,1.5
2018-02-04T13:04:26.491Z,1.44
2018-02-04T13:05:26.301Z,1.5
2018-02-04T13:06:26.668Z,1.5
2018-02-04T13:07:26.733Z,1.5
2018-02-04T13:08:27.050Z,1.5
2018-02-04T13:09:26.422Z,1.5
2018-02-04T13:10:27.475Z,1.5
2018-02-04T13:11:26.511Z,1.5
2018-02-04T13:12:26.746Z,1.5
2018-02-04T13:13:26.808Z,1.5
2018-02-04T13:14:26.598Z,1.5
2018-02-04T13:15:26.673Z,1.5
2018-02-04T13:16:26.251Z,1.5
2018-02-04T13:17:26.001Z,1.56
2018-02-04T13:18:25.939Z,1.56
2018-02-04T13:19:26.105Z,1.56
2018-02-04T13:20:26.172Z,1.5
2018-02-04T13:21:26.292Z,1.56
2018-02-04T13:22:26.116Z,1.5
2018-02-04T13:23:26.150Z,1.62
2018-02-04T13:24:26.020Z,1.5
2018-02-04T13:25:26.242Z,1.56
2018-02-04T13:26:26.126Z,1.56
2018-02-04T13:27:26.202Z,1.56
2018-02-04T13:28:25.934Z,1.62
2018-02-04T13:29:26.048Z,1.62
2018-02-04T13:30:26.193Z,1.56